Pagrindinis puslapis
METAR-TAF:

METAR-TAF

Oro uostai :

Luni

Sarzana, Italija

platuma: 44-05N, ilguma: 009-59E, Aukštis: 9 m

Dabartinis oras

Ataskaita buvo paskelbta 17 valandos ir 51 minutes, ne 10:55 UTC
Temperatūra 6°C
Drėgmė 87%
Slėgis 1027 hPa
Matomumas 10 km arba daugiau
Mažai debesys ne aukštis 4000 ft

METAR: LIQW 171055Z /////KT 9999 FEW040 06/04 Q1027

Laikas: 05:46 (04:46 UTC)

Prognozė

Ataskaita buvo paskelbta 20 valandos ir 46 minutes, ne 08:00 UTC
Prognozė galioja nuo 17 metu 09 UTC su 17 metu 18 UTC
Vėjas 3 kt iš Rytų
Matomumas 10 km arba daugiau
Mažai debesys ne aukštis 3000 ft
Tapsmas
nuo 17 metu 11 UTC su 17 metu 13 UTC
Išsisklaidę debesys ne aukštis 3000 ft
Išsisklaidę debesys ne aukštis 5000 ft

TAF: LIQW 170800Z 1709/1718 10003KT 9999 FEW030 BECMG 1711/1713 SCT030 SCT050

Orai ataskaitas ir orų prognozės (METAR, TAF).

turimą stotys yra geltonos ir raudonos taškus žemėlapyje.

Perkelti pele per norėdami pamatyti stoties vardą.

Tada spustelėkite, norėdami matyti oro stebėjimo ir prognozės.

Norėdami pakeisti žemėlapį: spustelėkite ant žalios mygtukų su juodo kryžiaus žemyn,; žalią mygtuką su brūkšneliu, jei norite nutolinti; arba žalių rodyklių gretimoms žemėlapius.


METAR-TAF: